Time;durP1;ratioP1;P1;durP2;ratioP2;P2;SDS_P1;SDS_P2;PMS_P1;PMS_P2;Temp;Humidity;BMP_temperature;BMP_pressure;BME280_temperature;BME280_humidity;BME280_pressure;Samples;Min_cycle;Max_cycle;Signal;HPM_P1;HPM_P2
2022/02/24 00:01:33;;;;;;;0.00;0.00;;;20.30;29.90;20.70;94276.00;;;;10394433;28;45207;-54
2022/02/24 00:06:34;;;;;;;0.00;0.00;;;20.30;29.90;20.70;94282.00;;;;10394359;28;45196;-54
2022/02/24 00:11:35;;;;;;;0.00;0.00;;;20.30;29.90;20.70;94280.00;;;;10394263;28;45123;-56
2022/02/24 00:16:36;;;;;;;0.00;0.00;;;20.30;29.90;20.70;94275.00;;;;10393922;28;45777;-53
2022/02/24 00:21:36;;;;;;;0.05;0.05;;;20.30;29.90;20.70;94274.00;;;;10393502;28;45112;-55
2022/02/24 00:26:37;;;;;;;0.10;0.00;;;20.30;29.90;20.70;94273.00;;;;10393456;28;45183;-56
2022/02/24 00:31:38;;;;;;;0.10;0.10;;;20.30;30.40;20.70;94262.00;;;;10392782;28;46001;-55
2022/02/24 00:36:39;;;;;;;0.00;0.00;;;20.30;29.90;20.70;94263.00;;;;10392154;28;46069;-55
2022/02/24 00:41:40;;;;;;;0.08;0.00;;;20.30;29.90;20.70;94258.00;;;;10393438;28;45181;-55
2022/02/24 00:46:41;;;;;;;0.08;0.00;;;20.30;29.90;20.70;94252.00;;;;10393200;28;46268;-55
2022/02/24 00:51:42;;;;;;;0.13;0.08;;;20.30;29.90;20.70;94251.00;;;;10391592;28;45919;-55
2022/02/24 00:56:43;;;;;;;0.10;0.00;;;20.30;29.90;20.70;94251.00;;;;10395436;28;45350;-55
2022/02/24 01:01:44;;;;;;;0.08;0.00;;;20.30;29.90;20.70;94246.00;;;;10400159;28;46185;-54
2022/02/24 01:06:44;;;;;;;0.08;0.08;;;20.30;29.90;20.70;94241.00;;;;10399709;28;45194;-55
2022/02/24 01:11:45;;;;;;;0.00;0.00;;;20.30;29.90;20.70;94235.00;;;;10399534;28;45111;-56
2022/02/24 01:16:46;;;;;;;0.00;0.00;;;20.30;29.90;20.70;94224.00;;;;10399723;28;45395;-55
2022/02/24 01:21:47;;;;;;;0.00;0.00;;;20.30;29.90;20.70;94235.00;;;;10414841;28;46179;-54
2022/02/24 01:26:47;;;;;;;0.00;0.00;;;20.30;29.90;20.70;94230.00;;;;10399212;28;45363;-55
2022/02/24 01:31:48;;;;;;;0.00;0.00;;;20.30;29.90;20.70;94223.00;;;;10397946;28;46587;-55
2022/02/24 01:36:49;;;;;;;0.00;0.00;;;20.30;29.90;20.70;94204.00;;;;10398576;28;45770;-55
2022/02/24 01:41:49;;;;;;;0.00;0.00;;;20.30;29.90;20.70;94198.00;;;;10397715;28;45174;-55
2022/02/24 01:46:50;;;;;;;0.00;0.00;;;20.30;29.90;20.70;94206.00;;;;10397169;28;45259;-55
2022/02/24 01:51:51;;;;;;;0.00;0.00;;;20.30;29.90;20.70;94193.00;;;;10396893;28;45174;-54
2022/02/24 01:56:51;;;;;;;0.00;0.00;;;20.30;29.90;20.70;94182.00;;;;10398107;28;45104;-54
2022/02/24 02:01:52;;;;;;;0.00;0.00;;;20.30;29.90;20.70;94176.00;;;;10392224;28;45264;-54
2022/02/24 02:06:54;;;;;;;0.00;0.00;;;20.30;29.90;20.70;94169.00;;;;10395754;28;45215;-56
2022/02/24 02:17:06;;;;;;;0.00;0.00;;;20.30;29.90;20.70;94155.00;;;;10492997;28;45235;-53
2022/02/24 02:22:07;;;;;;;0.40;0.10;;;20.30;29.90;20.70;94138.00;;;;10513055;28;45241;-55
2022/02/24 02:27:07;;;;;;;0.00;0.00;;;20.30;29.90;20.70;94140.00;;;;10479280;28;46138;-56
2022/02/24 02:32:08;;;;;;;0.00;0.00;;;20.30;29.80;20.70;94130.00;;;;10480740;28;45248;-56
2022/02/24 02:37:09;;;;;;;0.00;0.00;;;20.30;29.80;20.70;94128.00;;;;10478726;28;47346;-54
2022/02/24 02:42:09;;;;;;;0.00;0.00;;;20.30;29.90;20.70;94123.00;;;;10479046;28;45331;-56
2022/02/24 02:47:10;;;;;;;0.00;0.00;;;20.30;29.90;20.70;94110.00;;;;10480090;28;45353;-56
2022/02/24 02:52:11;;;;;;;0.00;0.00;;;20.30;29.90;20.70;94109.00;;;;10479738;28;45253;-56
2022/02/24 02:57:12;;;;;;;0.10;0.00;;;20.30;29.80;20.70;94097.00;;;;10478252;28;45175;-56
2022/02/24 03:02:12;;;;;;;0.00;0.00;;;20.30;29.80;20.70;94102.00;;;;10479411;28;45185;-56
2022/02/24 03:07:13;;;;;;;0.00;0.00;;;20.30;29.80;20.70;94110.00;;;;10479201;28;45368;-54
2022/02/24 03:12:14;;;;;;;0.05;0.00;;;20.30;29.90;20.70;94098.00;;;;10479154;28;45376;-52
2022/02/24 03:17:16;;;;;;;0.00;0.00;;;20.30;29.80;20.70;94080.00;;;;10479071;28;46481;-53
2022/02/24 03:22:16;;;;;;;0.00;0.00;;;20.30;29.90;20.70;94080.00;;;;10477914;28;45259;-51
2022/02/24 03:27:17;;;;;;;0.00;0.00;;;20.30;29.90;20.70;94065.00;;;;10479185;28;46358;-52
2022/02/24 03:32:18;;;;;;;0.10;0.00;;;20.30;29.90;20.70;94069.00;;;;10477084;28;45191;-53
2022/02/24 03:37:18;;;;;;;0.10;0.00;;;20.30;29.90;20.70;94072.00;;;;10477303;28;45340;-52
2022/02/24 03:42:19;;;;;;;0.00;0.00;;;20.30;29.80;20.70;94079.00;;;;10478191;28;46294;-52
2022/02/24 03:47:22;;;;;;;0.10;0.00;;;20.30;29.80;20.70;94064.00;;;;10477090;28;45215;-53
2022/02/24 03:52:23;;;;;;;0.00;0.00;;;20.30;29.90;20.70;94058.00;;;;10476264;28;46563;-50
2022/02/24 03:57:24;;;;;;;0.00;0.00;;;20.30;29.80;20.70;94058.00;;;;10459132;28;45829;-53
2022/02/24 04:02:24;;;;;;;0.00;0.00;;;20.30;29.90;20.70;94038.00;;;;10477616;28;45091;-54
2022/02/24 04:07:25;;;;;;;0.00;0.00;;;20.30;29.90;20.70;94042.00;;;;10477181;28;46462;-53
2022/02/24 04:12:25;;;;;;;0.00;0.00;;;20.30;29.80;20.70;94041.00;;;;10475942;28;45524;-51
2022/02/24 04:17:26;;;;;;;0.00;0.00;;;20.30;29.80;20.70;94032.00;;;;10477272;28;45382;-50
2022/02/24 04:22:27;;;;;;;0.00;0.00;;;20.30;29.90;20.70;94020.00;;;;10476953;28;45402;-53
2022/02/24 04:27:27;;;;;;;0.00;0.00;;;20.30;29.80;20.70;94003.00;;;;10476031;28;46493;-53
2022/02/24 04:32:28;;;;;;;0.00;0.00;;;20.30;29.80;20.70;94010.00;;;;10481820;28;45642;-53
2022/02/24 04:37:28;;;;;;;0.00;0.00;;;20.30;29.90;20.70;94002.00;;;;10483899;28;45351;-51
2022/02/24 04:42:29;;;;;;;0.00;0.00;;;20.30;29.80;20.70;93990.00;;;;10484499;28;45333;-53
2022/02/24 04:47:30;;;;;;;0.00;0.00;;;20.20;29.80;20.70;93995.00;;;;10482150;28;47254;-54
2022/02/24 04:52:32;;;;;;;0.00;0.00;;;20.30;29.80;20.70;93987.00;;;;10483396;28;46540;-53
2022/02/24 04:57:33;;;;;;;0.00;0.00;;;20.20;29.80;20.70;93977.00;;;;10482018;28;45612;-52
2022/02/24 05:02:33;;;;;;;0.00;0.00;;;20.20;29.80;20.70;93972.00;;;;10483102;28;45315;-53
2022/02/24 05:07:34;;;;;;;0.00;0.00;;;20.30;29.80;20.70;93970.00;;;;10481891;28;45879;-52
2022/02/24 05:12:35;;;;;;;0.00;0.00;;;20.30;29.80;20.70;93952.00;;;;10482957;28;45400;-54
2022/02/24 05:17:39;;;;;;;0.00;0.00;;;20.20;29.80;20.70;93952.00;;;;10482688;28;45430;-53
2022/02/24 05:22:41;;;;;;;0.00;0.00;;;20.30;29.80;20.70;93948.00;;;;10482684;28;46322;-53
2022/02/24 05:27:44;;;;;;;0.00;0.00;;;20.30;29.80;20.70;93948.00;;;;10481577;28;45195;-52
2022/02/24 05:32:45;;;;;;;0.00;0.00;;;20.30;29.80;20.70;93949.00;;;;10481292;28;45580;-52
2022/02/24 05:37:45;;;;;;;0.25;0.10;;;20.30;29.80;20.70;93942.00;;;;10482193;28;45471;-54
2022/02/24 05:42:46;;;;;;;0.00;0.00;;;20.30;29.80;20.70;93929.00;;;;10481215;28;45255;-53
2022/02/24 05:47:47;;;;;;;0.00;0.00;;;20.30;29.80;20.70;93929.00;;;;10480453;28;46400;-53
2022/02/24 05:52:48;;;;;;;0.00;0.00;;;20.30;29.80;20.70;93941.00;;;;10481820;28;45270;-53
2022/02/24 05:57:48;;;;;;;0.00;0.00;;;20.30;29.80;20.70;93931.00;;;;10480255;28;45247;-52
2022/02/24 06:02:49;;;;;;;0.08;0.00;;;20.30;29.80;20.70;93916.00;;;;10480557;28;45408;-53
2022/02/24 06:07:50;;;;;;;0.00;0.00;;;20.30;29.80;20.70;93938.00;;;;10481158;28;46186;-53
2022/02/24 06:12:55;;;;;;;0.00;0.00;;;20.30;29.80;20.70;93936.00;;;;10481023;28;45302;-54
2022/02/24 06:17:56;;;;;;;0.00;0.00;;;20.30;29.80;20.70;93938.00;;;;10480538;28;46288;-52
2022/02/24 06:22:56;;;;;;;0.00;0.00;;;20.30;29.80;20.70;93943.00;;;;10480263;28;45359;-52
2022/02/24 06:27:58;;;;;;;0.00;0.00;;;20.20;29.80;20.70;93938.00;;;;10480368;28;45333;-53
2022/02/24 06:32:59;;;;;;;0.00;0.00;;;20.30;29.80;20.70;93946.00;;;;10480660;28;45288;-53
2022/02/24 06:38:01;;;;;;;0.00;0.00;;;20.30;29.80;20.70;93942.00;;;;10475547;28;45155;-53
2022/02/24 06:43:02;;;;;;;0.00;0.00;;;20.30;29.80;20.70;93946.00;;;;10476887;28;46161;-51
2022/02/24 06:48:03;;;;;;;0.00;0.00;;;20.30;29.80;20.70;93944.00;;;;10479982;28;45430;-54
2022/02/24 06:53:03;;;;;;;0.00;0.00;;;20.30;29.80;20.70;93950.00;;;;10477813;28;45376;-53
2022/02/24 06:58:04;;;;;;;0.10;0.00;;;20.30;29.80;20.70;93950.00;;;;10477581;28;45444;-54
2022/02/24 07:03:05;;;;;;;0.15;0.00;;;20.30;29.80;20.70;93953.00;;;;10479207;28;46295;-54
2022/02/24 07:08:05;;;;;;;0.00;0.00;;;20.30;29.80;20.70;93946.00;;;;10477476;28;46042;-52
2022/02/24 07:13:06;;;;;;;0.00;0.00;;;20.30;29.80;20.70;93952.00;;;;10478168;28;45247;-53
2022/02/24 07:18:07;;;;;;;0.00;0.00;;;20.30;29.80;20.70;93930.00;;;;10478848;28;46172;-54
2022/02/24 07:23:07;;;;;;;0.00;0.00;;;20.30;29.80;20.70;93955.00;;;;10478476;28;45269;-53
2022/02/24 07:28:08;;;;;;;0.00;0.00;;;20.30;29.80;20.70;93957.00;;;;10478293;28;45228;-51
2022/02/24 07:33:09;;;;;;;0.00;0.00;;;20.30;29.80;20.70;93959.00;;;;10477925;28;45528;-54
2022/02/24 07:38:10;;;;;;;0.08;0.00;;;20.30;29.80;20.70;93954.00;;;;10478204;28;45265;-54
2022/02/24 07:43:10;;;;;;;0.22;0.00;;;20.30;29.80;20.70;93950.00;;;;10476800;28;45441;-54
2022/02/24 07:48:11;;;;;;;0.00;0.00;;;20.30;29.80;20.70;93940.00;;;;10477765;28;46250;-52
2022/02/24 07:53:11;;;;;;;0.00;0.00;;;20.30;29.80;20.70;93937.00;;;;10477448;28;45579;-54
2022/02/24 07:58:12;;;;;;;0.00;0.00;;;20.30;29.80;20.70;93949.00;;;;10477420;28;45119;-54
2022/02/24 08:03:13;;;;;;;0.00;0.00;;;20.30;29.80;20.70;93947.00;;;;10459085;28;46033;-55
2022/02/24 08:08:14;;;;;;;0.00;0.00;;;20.30;29.80;20.70;93948.00;;;;10477186;28;45387;-54
2022/02/24 08:13:15;;;;;;;0.00;0.00;;;20.30;29.80;20.70;93937.00;;;;10476613;28;45191;-53
2022/02/24 08:18:17;;;;;;;0.20;0.10;;;20.30;29.80;20.70;93951.00;;;;10475549;28;46295;-54
2022/02/24 08:23:18;;;;;;;0.20;0.10;;;20.30;29.80;20.70;93954.00;;;;10476787;28;45475;-54
2022/02/24 08:28:19;;;;;;;1.05;0.60;;;20.30;29.80;17.90;93954.00;;;;10476174;28;46392;-49
2022/02/24 08:33:20;;;;;;;1.15;0.70;;;19.00;30.00;18.00;93954.00;;;;10475103;28;45483;-49
2022/02/24 08:38:20;;;;;;;0.88;0.50;;;18.50;32.00;18.10;93932.00;;;;10476452;28;45144;-52
2022/02/24 08:43:22;;;;;;;1.55;0.50;;;18.20;32.90;18.10;93943.00;;;;10476508;28;46667;-49
2022/02/24 08:48:23;;;;;;;1.00;0.50;;;18.20;33.50;18.10;93933.00;;;;10476178;28;45410;-48
2022/02/24 08:53:24;;;;;;;1.75;0.50;;;18.10;33.80;18.10;93919.00;;;;10426330;28;45904;-48
2022/02/24 08:58:25;;;;;;;1.58;0.50;;;18.00;34.00;18.10;93925.00;;;;10390762;28;45442;-49
2022/02/24 09:03:25;;;;;;;1.50;0.52;;;18.00;34.10;18.10;93912.00;;;;10391123;28;45343;-50
2022/02/24 09:08:26;;;;;;;2.97;0.52;;;18.00;34.30;18.10;93904.00;;;;10391041;28;45248;-48
2022/02/24 09:13:26;;;;;;;0.63;0.40;;;18.00;34.50;18.10;93907.00;;;;10392458;28;46588;-49
2022/02/24 09:18:27;;;;;;;2.58;0.60;;;18.00;34.80;18.10;93907.00;;;;10394800;28;45188;-48
2022/02/24 09:23:28;;;;;;;1.05;0.50;;;18.00;34.90;18.10;93899.00;;;;10399111;28;45723;-49
2022/02/24 09:28:29;;;;;;;0.98;0.50;;;18.00;35.00;18.10;93907.00;;;;10399159;28;45244;-49
2022/02/24 09:33:30;;;;;;;0.88;0.43;;;18.00;35.00;18.10;93890.00;;;;10399040;28;45189;-49
2022/02/24 09:38:31;;;;;;;0.90;0.40;;;17.90;35.00;18.10;93912.00;;;;10399331;28;45164;-48
2022/02/24 09:43:33;;;;;;;1.00;0.50;;;17.90;35.00;18.10;93911.00;;;;10398691;28;45228;-48
2022/02/24 09:48:41;;;;;;;2.25;0.70;;;17.90;34.90;18.10;93911.00;;;;10398545;28;45212;-49
2022/02/24 09:53:47;;;;;;;1.75;0.68;;;17.90;35.00;18.10;93894.00;;;;10467770;28;46156;-47
2022/02/24 09:58:49;;;;;;;0.80;0.47;;;18.00;35.10;18.10;93903.00;;;;10480086;28;45774;-47
2022/02/24 10:03:57;;;;;;;1.17;0.57;;;18.00;35.10;18.10;93904.00;;;;10479678;28;45700;-49
2022/02/24 10:08:58;;;;;;;0.30;0.30;;;18.00;35.20;18.10;93895.00;;;;10477273;28;45211;-48
2022/02/24 10:14:04;;;;;;;0.55;0.45;;;17.90;35.10;18.10;93892.00;;;;10475494;28;46218;-48
2022/02/24 10:19:12;;;;;;;;;;;18.00;35.20;18.10;93889.00;;;;10481432;28;45251;-47
2022/02/24 10:24:24;;;;;;;0.75;0.40;;;18.00;35.30;18.10;93891.00;;;;10479998;28;45104;-47
2022/02/24 10:29:25;;;;;;;1.02;0.43;;;18.00;35.80;18.10;93887.00;;;;10476532;28;45330;-47
2022/02/24 10:34:26;;;;;;;0.60;0.40;;;18.00;36.20;18.10;93885.00;;;;10450912;28;46343;-48
2022/02/24 10:39:35;;;;;;;0.98;0.50;;;17.90;36.70;18.10;93866.00;;;;10479596;28;45269;-49
2022/02/24 10:44:37;;;;;;;0.85;0.40;;;17.90;36.90;18.10;93847.00;;;;10480183;28;46431;-48
2022/02/24 10:49:42;;;;;;;0.52;0.30;;;17.90;37.30;18.10;93856.00;;;;10455838;28;45337;-49
2022/02/24 10:54:57;;;;;;;0.95;0.50;;;17.90;37.50;18.10;93855.00;;;;10470601;28;45565;-47
2022/02/24 10:59:59;;;;;;;0.70;0.30;;;18.00;37.80;18.10;93849.00;;;;10437038;28;46600;-47
2022/02/24 11:05:00;;;;;;;0.57;0.30;;;18.00;38.10;18.10;93839.00;;;;10458460;28;46009;-48
2022/02/24 11:10:01;;;;;;;0.43;0.40;;;18.00;38.50;18.30;93830.00;;;;10475820;28;45337;-56
2022/02/24 11:15:02;;;;;;;1.75;0.45;;;18.10;38.80;18.20;93838.00;;;;10436923;28;46460;-57
2022/02/24 11:20:04;;;;;;;1.23;0.38;;;18.10;39.00;18.30;93817.00;;;;10455859;28;46070;-57
2022/02/24 11:25:08;;;;;;;1.52;0.50;;;18.10;39.10;18.20;93825.00;;;;10424931;28;46973;-57
2022/02/24 11:30:19;;;;;;;1.00;0.45;;;18.10;39.20;18.30;93827.00;;;;10468417;28;46449;-58
2022/02/24 11:35:25;;;;;;;1.58;0.30;;;18.10;39.30;18.20;93828.00;;;;10478682;28;45308;-58
2022/02/24 11:40:27;;;;;;;0.50;0.30;;;18.10;39.30;18.20;93826.00;;;;10476599;28;45313;-58
2022/02/24 11:45:45;;;;;;;1.17;0.28;;;18.10;39.00;18.20;93831.00;;;;10459721;28;47706;-59
2022/02/24 11:51:00;;;;;;;0.63;0.28;;;18.10;39.00;18.20;93821.00;;;;10478062;28;45285;-58
2022/02/24 11:56:21;;;;;;;0.40;0.30;;;18.10;39.00;18.20;93814.00;;;;10476313;28;45333;-58
2022/02/24 12:01:41;;;;;;;1.17;0.32;;;18.10;39.00;18.20;93809.00;;;;10459248;28;46823;-59
2022/02/24 12:07:07;;;;;;;0.43;0.40;;;18.10;39.10;18.20;93798.00;;;;10474819;28;46393;-58
2022/02/24 12:12:17;;;;;;;0.65;0.40;;;18.10;39.50;18.20;93808.00;;;;10427139;28;45230;-60
2022/02/24 12:17:19;;;;;;;0.68;0.30;;;18.10;40.00;18.20;93796.00;;;;10422552;28;45286;-59
2022/02/24 12:22:39;;;;;;;1.40;0.40;;;18.10;40.10;18.20;93796.00;;;;10434102;28;45326;-59
2022/02/24 12:27:42;;;;;;;0.65;0.30;;;18.10;40.40;18.20;93789.00;;;;10454489;28;46500;-60
2022/02/24 12:33:13;;;;;;;0.82;0.38;;;18.00;40.50;18.20;93768.00;;;;10427037;28;48001;-60
2022/02/24 12:38:18;;;;;;;0.77;0.25;;;18.10;40.70;18.20;93797.00;;;;10400393;28;45157;-60
2022/02/24 12:43:23;;;;;;;0.68;0.30;;;18.10;40.80;18.20;93771.00;;;;10375527;28;48406;-60
2022/02/24 12:48:24;;;;;;;0.25;0.20;;;18.10;41.70;18.20;93779.00;;;;10392491;28;45569;-60
2022/02/24 12:53:30;;;;;;;0.95;0.35;;;18.10;41.00;18.20;93767.00;;;;10398362;28;45258;-59
2022/02/24 12:58:32;;;;;;;2.40;0.20;;;18.10;41.20;18.20;93768.00;;;;10399354;28;45312;-59
2022/02/24 13:03:33;;;;;;;0.40;0.28;;;18.00;41.20;18.20;93765.00;;;;10398835;28;45142;-59
2022/02/24 13:13:59;;;;;;;0.35;0.30;;;18.10;41.20;18.20;93750.00;;;;10398707;28;45221;-60
2022/02/24 13:19:01;;;;;;;0.77;0.27;;;18.10;41.10;18.20;93746.00;;;;10399006;28;46348;-59
2022/02/24 13:24:03;;;;;;;0.50;0.25;;;18.10;41.20;18.20;93746.00;;;;10399968;28;45176;-58
2022/02/24 13:29:07;;;;;;;1.38;0.30;;;18.10;41.10;18.20;93747.00;;;;10399643;28;45965;-59
2022/02/24 13:34:12;;;;;;;0.57;0.25;;;18.10;41.10;18.20;93738.00;;;;10397530;28;46309;-60
2022/02/24 13:39:35;;;;;;;0.57;0.20;;;18.10;41.00;18.20;93744.00;;;;10398299;28;46449;-59
2022/02/24 13:44:43;;;;;;;1.35;0.30;;;18.10;41.00;18.20;93741.00;;;;10398020;28;45331;-60
2022/02/24 13:49:46;;;;;;;0.50;0.20;;;18.10;40.90;18.20;93730.00;;;;10384178;28;47732;-60
2022/02/24 13:55:01;;;;;;;0.20;0.20;;;18.10;40.90;18.20;93719.00;;;;10480505;28;48073;-60
2022/02/24 14:00:11;;;;;;;1.17;0.30;;;18.10;40.90;18.20;93713.00;;;;10451163;28;47273;-59
2022/02/24 14:05:15;;;;;;;1.33;0.30;;;18.00;40.90;18.20;93702.00;;;;10432154;28;47335;-59
2022/02/24 14:10:18;;;;;;;0.77;0.20;;;18.10;41.10;18.20;93696.00;;;;10441935;28;45256;-58
2022/02/24 14:15:19;;;;;;;0.70;0.30;;;18.10;40.90;18.20;93696.00;;;;10420443;28;46251;-58
2022/02/24 14:20:26;;;;;;;0.20;0.20;;;18.10;40.90;18.20;93706.00;;;;10443861;28;45496;-59
2022/02/24 14:25:27;;;;;;;0.52;0.22;;;18.10;40.90;18.20;93707.00;;;;10465470;28;48218;-59
2022/02/24 14:30:27;;;;;;;0.63;0.30;;;18.10;40.90;18.20;93702.00;;;;10446664;28;45551;-59
2022/02/24 14:35:28;;;;;;;1.17;0.20;;;18.10;40.90;18.20;93702.00;;;;10434042;28;45490;-58
2022/02/24 14:40:30;;;;;;;0.90;0.32;;;18.10;40.90;18.20;93704.00;;;;10423799;28;46452;-59
2022/02/24 14:45:31;;;;;;;0.70;0.20;;;18.10;40.80;18.20;93696.00;;;;10439956;28;45282;-56
2022/02/24 14:50:32;;;;;;;1.15;0.20;;;18.10;40.70;18.20;93684.00;;;;10444870;28;45495;-58
2022/02/24 14:55:35;;;;;;;1.75;0.30;;;18.10;40.80;18.20;93696.00;;;;10430149;28;46580;-57
2022/02/24 15:00:36;;;;;;;1.13;0.30;;;18.10;41.30;18.20;93692.00;;;;10421780;28;46269;-58
2022/02/24 15:05:38;;;;;;;0.50;0.20;;;18.10;41.20;18.20;93690.00;;;;10456261;28;46553;-58
2022/02/24 15:10:39;;;;;;;0.57;0.30;;;18.10;41.10;18.20;93682.00;;;;10431249;28;45577;-59
2022/02/24 15:15:41;;;;;;;0.57;0.28;;;18.10;40.90;18.20;93685.00;;;;10434573;28;47542;-58
2022/02/24 15:20:44;;;;;;;0.32;0.15;;;18.10;40.70;18.30;93681.00;;;;10403988;28;48136;-58
2022/02/24 15:25:45;;;;;;;0.75;0.20;;;18.10;40.50;18.20;93685.00;;;;10458913;28;47017;-58
2022/02/24 15:30:46;;;;;;;1.13;0.22;;;18.10;40.30;18.20;93686.00;;;;10426251;28;45281;-58
2022/02/24 15:35:46;;;;;;;0.50;0.20;;;18.10;40.10;18.30;93687.00;;;;10473501;28;46560;-56
2022/02/24 15:40:47;;;;;;;0.95;0.20;;;18.10;39.90;18.20;93685.00;;;;10433588;28;45574;-58
2022/02/24 15:45:48;;;;;;;1.38;0.50;;;18.10;39.60;18.30;93678.00;;;;10420475;28;45635;-58
2022/02/24 15:50:49;;;;;;;1.42;0.35;;;18.10;38.70;18.30;93682.00;;;;10427720;28;46939;-62
2022/02/24 15:55:50;;;;;;;1.67;0.60;;;18.20;38.80;18.30;93695.00;;;;10432261;28;46235;-60
2022/02/24 16:00:50;;;;;;;0.57;0.20;;;18.10;38.30;18.30;93698.00;;;;10426423;28;48247;-60
2022/02/24 16:05:51;;;;;;;0.73;0.20;;;18.20;38.30;18.30;93690.00;;;;10462882;28;47511;-62
2022/02/24 16:10:52;;;;;;;1.38;0.35;;;18.10;38.10;18.30;93683.00;;;;10464368;28;45604;-60
2022/02/24 16:15:53;;;;;;;1.67;0.40;;;18.10;37.90;18.20;93680.00;;;;10444056;28;45357;-60
2022/02/24 16:20:54;;;;;;;0.77;0.20;;;18.10;37.70;18.30;93679.00;;;;10452127;28;45504;-63
2022/02/24 16:25:55;;;;;;;1.60;0.57;;;18.20;37.70;18.30;93692.00;;;;10454054;28;46402;-60
2022/02/24 16:30:56;;;;;;;1.02;0.40;;;18.20;37.70;18.30;93700.00;;;;10467694;28;46584;-60
2022/02/24 16:35:56;;;;;;;0.73;0.30;;;18.10;37.60;18.30;93673.00;;;;10475403;28;48044;-59
2022/02/24 16:40:57;;;;;;;1.08;0.30;;;18.20;37.90;18.30;93714.00;;;;10474125;28;46462;-60
2022/02/24 16:45:58;;;;;;;1.10;0.20;;;18.20;37.90;18.30;93707.00;;;;10471811;28;46620;-60
2022/02/24 16:50:58;;;;;;;1.95;0.30;;;18.20;37.80;18.30;93698.00;;;;10475697;28;45449;-60
2022/02/24 16:55:59;;;;;;;2.53;0.40;;;18.20;38.40;18.30;93710.00;;;;10457222;28;45208;-60
2022/02/24 17:01:00;;;;;;;0.57;0.30;;;18.20;37.70;18.30;93735.00;;;;10471790;28;48207;-60
2022/02/24 17:06:01;;;;;;;0.82;0.30;;;18.20;37.60;18.30;93739.00;;;;10458393;28;46591;-59
2022/02/24 17:11:03;;;;;;;0.80;0.30;;;18.20;37.60;18.30;93736.00;;;;10447938;28;45337;-60
2022/02/24 17:16:04;;;;;;;1.63;0.40;;;18.20;37.60;18.40;93726.00;;;;10433955;28;48129;-60
2022/02/24 17:21:06;;;;;;;1.30;0.50;;;18.20;37.70;18.30;93719.00;;;;10397921;28;47525;-59
2022/02/24 17:26:07;;;;;;;2.03;0.50;;;18.20;37.90;18.30;93718.00;;;;10431910;28;46189;-59
2022/02/24 17:31:09;;;;;;;1.88;0.55;;;18.20;38.10;18.30;93720.00;;;;10411002;28;46930;-61
2022/02/24 17:36:11;;;;;;;1.20;0.40;;;;;20.90;93747.00;;;;10420591;28;46253;-44
2022/02/24 17:41:12;;;;;;;0.82;0.40;;;;;20.20;93747.00;;;;10418164;28;45461;-43
2022/02/24 17:46:16;;;;;;;0.63;0.30;;;;;20.10;93750.00;;;;10419854;28;46243;-43
2022/02/24 17:51:22;;;;;;;1.17;0.43;;;25.70;46.70;21.50;93763.00;;;;10335028;28;45452;-56
2022/02/24 17:56:23;;;;;;;1.40;0.40;;;21.90;55.70;22.00;93766.00;;;;10203569;28;45437;-51
2022/02/24 18:01:23;;;;;;;0.63;0.30;;;20.60;31.80;20.70;93768.00;;;;10348409;28;46484;-50
2022/02/24 18:06:25;;;;;;;1.10;0.35;;;18.40;36.10;20.40;93775.00;;;;10361980;28;45215;-51
2022/02/24 18:11:26;;;;;;;0.50;0.28;;;17.80;37.50;20.30;93775.00;;;;10354923;28;46242;-50
2022/02/24 18:16:27;;;;;;;0.75;0.30;;;17.60;37.80;20.20;93778.00;;;;10359530;28;45472;-52
2022/02/24 18:21:28;;;;;;;1.02;0.43;;;17.50;37.90;20.20;93776.00;;;;10376571;28;45262;-49
2022/02/24 18:26:29;;;;;;;0.70;0.45;;;17.50;37.90;20.10;93779.00;;;;10357540;28;45462;-50
2022/02/24 18:31:29;;;;;;;1.05;0.45;;;17.50;37.90;20.10;93762.00;;;;10345690;28;45454;-50
2022/02/24 18:36:30;;;;;;;0.20;0.20;;;17.50;38.00;20.10;93772.00;;;;10388162;28;45457;-50
2022/02/24 18:41:31;;;;;;;0.70;0.30;;;17.50;38.00;20.10;93771.00;;;;10396157;28;45348;-50
2022/02/24 18:46:31;;;;;;;0.30;0.20;;;17.50;37.80;20.10;93774.00;;;;10395522;28;45535;-50
2022/02/24 18:51:33;;;;;;;0.43;0.20;;;17.50;37.70;20.10;93773.00;;;;10395488;28;46282;-50
2022/02/24 18:56:34;;;;;;;0.35;0.28;;;17.50;37.60;20.10;93782.00;;;;10394559;28;45077;-49
2022/02/24 19:01:35;;;;;;;0.25;0.13;;;17.50;37.50;20.10;93787.00;;;;10365828;28;45450;-50
2022/02/24 19:06:35;;;;;;;0.43;0.20;;;17.50;37.40;20.10;93784.00;;;;10360659;28;46562;-49
2022/02/24 19:11:43;;;;;;;0.60;0.30;;;17.50;37.40;20.20;93757.00;;;;10394294;28;45445;-49
2022/02/24 19:16:44;;;;;;;0.80;0.20;;;17.50;37.40;20.20;93766.00;;;;10394358;28;45212;-49
2022/02/24 19:21:46;;;;;;;0.40;0.30;;;17.50;37.30;20.20;93773.00;;;;10390490;28;48617;-49
2022/02/24 19:26:47;;;;;;;0.70;0.35;;;17.50;37.20;20.10;93779.00;;;;10395278;28;45292;-50
2022/02/24 19:31:48;;;;;;;1.48;0.40;;;17.50;37.20;20.20;93754.00;;;;10281316;28;45224;-50
2022/02/24 19:36:48;;;;;;;0.88;0.30;;;17.50;37.20;20.20;93754.00;;;;10393686;28;46172;-52
2022/02/24 19:41:50;;;;;;;0.70;0.40;;;17.50;37.10;20.20;93765.00;;;;10395338;28;45187;-49
2022/02/24 19:46:51;;;;;;;1.30;0.20;;;17.50;37.10;20.20;93775.00;;;;10410186;28;47331;-50
2022/02/24 19:51:52;;;;;;;0.52;0.30;;;17.50;37.10;20.20;93768.00;;;;10395060;28;45199;-51
2022/02/24 19:56:53;;;;;;;0.75;0.28;;;17.50;37.00;20.20;93768.00;;;;10392713;28;46048;-51
2022/02/24 20:01:53;;;;;;;1.70;0.40;;;17.50;37.00;20.20;93775.00;;;;10388989;28;46254;-50
2022/02/24 20:06:54;;;;;;;0.45;0.17;;;17.50;37.00;20.20;93776.00;;;;10356295;28;46456;-50
2022/02/24 20:11:55;;;;;;;1.17;0.40;;;17.50;37.00;20.20;93767.00;;;;10393770;28;45457;-51
2022/02/24 20:17:00;;;;;;;0.93;0.38;;;17.60;37.00;20.20;93779.00;;;;10394090;28;45490;-49
2022/02/24 20:22:02;;;;;;;2.17;0.43;;;17.50;36.90;20.20;93784.00;;;;10392476;28;45234;-51
2022/02/24 20:27:03;;;;;;;0.75;0.32;;;17.50;36.90;20.20;93797.00;;;;10392545;28;47349;-51
2022/02/24 20:32:05;;;;;;;0.65;0.30;;;17.50;36.80;20.20;93793.00;;;;10392479;28;46143;-50
2022/02/24 20:37:06;;;;;;;0.93;0.40;;;17.50;36.80;20.20;93799.00;;;;10392040;28;45379;-50
2022/02/24 20:42:08;;;;;;;1.58;0.38;;;17.50;36.80;20.20;93792.00;;;;10392178;28;45434;-50
2022/02/24 20:47:09;;;;;;;0.85;0.30;;;17.50;36.80;20.20;93790.00;;;;10393296;28;46278;-50
2022/02/24 20:52:09;;;;;;;0.60;0.30;;;17.50;36.80;20.20;93784.00;;;;10391855;28;45960;-50
2022/02/24 20:57:10;;;;;;;1.45;0.32;;;17.50;36.80;20.20;93792.00;;;;10407998;28;46031;-50
2022/02/24 21:02:10;;;;;;;1.60;0.40;;;17.60;36.80;20.20;93793.00;;;;10393175;28;46140;-51
2022/02/24 21:07:11;;;;;;;0.60;0.38;;;17.50;36.80;20.20;93794.00;;;;10392098;28;45295;-51
2022/02/24 21:12:12;;;;;;;1.25;0.30;;;17.50;36.80;20.20;93805.00;;;;10350393;28;45238;-51
2022/02/24 21:17:12;;;;;;;0.30;0.28;;;17.50;36.70;20.20;93819.00;;;;10358678;28;46657;-50
2022/02/24 21:22:14;;;;;;;0.43;0.20;;;17.50;36.80;20.20;93829.00;;;;10373290;28;46242;-50
2022/02/24 21:27:16;;;;;;;0.77;0.22;;;17.60;36.80;20.20;93843.00;;;;10358124;28;46195;-51
2022/02/24 21:32:17;;;;;;;0.40;0.20;;;17.60;36.70;20.20;93854.00;;;;10359150;28;45218;-50
2022/02/24 21:37:18;;;;;;;0.32;0.20;;;17.50;36.70;20.20;93852.00;;;;10355761;28;46707;-50
2022/02/24 21:42:18;;;;;;;0.65;0.30;;;17.50;36.70;20.20;93882.00;;;;10357326;28;45351;-50
2022/02/24 21:47:19;;;;;;;0.30;0.20;;;17.50;36.60;20.20;93891.00;;;;10357425;28;45359;-51
2022/02/24 21:52:20;;;;;;;0.57;0.10;;;17.50;36.60;20.20;93894.00;;;;10357707;28;45847;-50
2022/02/24 21:57:20;;;;;;;0.43;0.20;;;17.50;36.60;20.20;93910.00;;;;10356866;28;45170;-50
2022/02/24 22:02:21;;;;;;;0.20;0.20;;;17.50;36.60;20.20;93925.00;;;;10355874;28;46292;-50
2022/02/24 22:07:22;;;;;;;0.20;0.20;;;17.50;36.60;20.20;93943.00;;;;10356451;28;45295;-51
2022/02/24 22:12:22;;;;;;;0.35;0.10;;;17.50;36.50;20.20;93966.00;;;;10356630;28;46398;-51
2022/02/24 22:17:23;;;;;;;0.10;0.10;;;17.50;36.50;20.20;93982.00;;;;10355580;28;45448;-50